createdAt,value
2023-01-13T00:11:10.316Z,91.97
2023-01-13T00:41:13.195Z,92.15
2023-01-13T01:11:17.279Z,93.03
2023-01-13T01:41:20.210Z,93.88
2023-01-13T02:11:24.567Z,94.40
2023-01-13T02:41:27.500Z,94.70
2023-01-13T03:11:31.146Z,94.78
2023-01-13T03:41:34.182Z,94.27
2023-01-13T04:11:38.743Z,93.43
2023-01-13T04:41:41.665Z,93.53
2023-01-13T05:11:46.040Z,93.99
2023-01-13T05:41:48.916Z,93.59
2023-01-13T06:11:53.174Z,92.54
2023-01-13T06:41:55.988Z,92.21
2023-01-13T07:12:00.459Z,92.65
2023-01-13T07:42:03.265Z,92.82
2023-01-13T08:12:06.832Z,92.37
2023-01-13T08:42:09.895Z,91.76
2023-01-13T09:12:13.738Z,91.51
2023-01-13T09:42:16.568Z,92.35
2023-01-13T10:12:20.477Z,92.42
2023-01-13T11:12:27.866Z,93.40
2023-01-13T11:42:30.715Z,94.64
2023-01-13T12:12:34.852Z,94.59
2023-01-13T12:42:37.778Z,94.13
2023-01-13T13:12:42.183Z,94.07
2023-01-13T13:42:45.035Z,93.82
2023-01-13T14:12:48.725Z,92.61
2023-01-13T14:42:51.675Z,92.46
2023-01-13T15:12:55.396Z,91.04
2023-01-13T15:42:58.362Z,89.03
2023-01-13T16:13:02.133Z,88.96
2023-01-13T16:43:05.197Z,89.45
2023-01-13T17:13:15.932Z,89.46
2023-01-13T17:43:19.702Z,88.77
2023-01-13T18:13:23.163Z,89.12
2023-01-13T18:43:26.516Z,87.46
2023-01-13T19:13:30.546Z,86.00
2023-01-13T19:43:33.440Z,86.57
2023-01-13T20:13:37.923Z,86.60
2023-01-13T20:43:40.804Z,85.39
2023-01-13T21:13:45.723Z,85.50
2023-01-13T21:43:49.055Z,85.97
2023-01-13T22:13:52.934Z,85.60
2023-01-13T22:43:56.366Z,85.86
2023-01-13T23:14:00.386Z,86.66
2023-01-13T23:44:03.848Z,86.97
